sensor_id;sensor_type;location;lat;lon;timestamp;P1;durP1;ratioP1;P2;durP2;ratioP2
58896;SDS011;44677;52.378;10.400;2023-03-31T00:01:23;5.00;;;2.30;;
58896;SDS011;44677;52.378;10.400;2023-03-31T00:03:49;8.90;;;2.50;;
58896;SDS011;44677;52.378;10.400;2023-03-31T00:06:15;7.60;;;2.80;;
58896;SDS011;44677;52.378;10.400;2023-03-31T00:08:43;8.20;;;3.40;;
58896;SDS011;44677;52.378;10.400;2023-03-31T00:11:09;6.70;;;2.90;;
58896;SDS011;44677;52.378;10.400;2023-03-31T00:13:36;8.20;;;2.60;;
58896;SDS011;44677;52.378;10.400;2023-03-31T00:16:03;10.50;;;3.00;;
58896;SDS011;44677;52.378;10.400;2023-03-31T00:18:30;7.70;;;2.80;;
58896;SDS011;44677;52.378;10.400;2023-03-31T00:26:20;6.40;;;2.60;;
58896;SDS011;44677;52.378;10.400;2023-03-31T00:31:16;6.30;;;2.40;;
58896;SDS011;44677;52.378;10.400;2023-03-31T00:33:41;5.40;;;2.70;;
58896;SDS011;44677;52.378;10.400;2023-03-31T00:36:07;5.10;;;2.40;;
58896;SDS011;44677;52.378;10.400;2023-03-31T00:38:32;8.50;;;2.80;;
58896;SDS011;44677;52.378;10.400;2023-03-31T00:40:58;5.70;;;2.50;;
58896;SDS011;44677;52.378;10.400;2023-03-31T00:45:49;6.50;;;2.60;;
58896;SDS011;44677;52.378;10.400;2023-03-31T00:48:15;4.10;;;2.50;;
58896;SDS011;44677;52.378;10.400;2023-03-31T00:50:45;6.10;;;2.40;;
58896;SDS011;44677;52.378;10.400;2023-03-31T00:53:23;8.70;;;2.30;;
58896;SDS011;44677;52.378;10.400;2023-03-31T00:55:52;10.80;;;2.60;;
58896;SDS011;44677;52.378;10.400;2023-03-31T00:58:19;5.40;;;1.90;;
58896;SDS011;44677;52.378;10.400;2023-03-31T01:00:46;6.30;;;3.10;;
58896;SDS011;44677;52.378;10.400;2023-03-31T01:03:13;6.30;;;2.50;;
58896;SDS011;44677;52.378;10.400;2023-03-31T01:08:12;6.30;;;2.20;;
58896;SDS011;44677;52.378;10.400;2023-03-31T01:10:40;4.20;;;2.50;;
58896;SDS011;44677;52.378;10.400;2023-03-31T01:13:10;5.80;;;2.20;;
58896;SDS011;44677;52.378;10.400;2023-03-31T01:15:36;4.60;;;2.30;;
58896;SDS011;44677;52.378;10.400;2023-03-31T01:18:03;5.20;;;2.30;;
58896;SDS011;44677;52.378;10.400;2023-03-31T01:35:26;6.60;;;2.20;;
58896;SDS011;44677;52.378;10.400;2023-03-31T01:38:13;8.40;;;2.30;;
58896;SDS011;44677;52.378;10.400;2023-03-31T01:46:52;4.20;;;2.20;;
58896;SDS011;44677;52.378;10.400;2023-03-31T01:52:16;4.30;;;2.20;;
58896;SDS011;44677;52.378;10.400;2023-03-31T02:02:39;3.60;;;1.80;;
58896;SDS011;44677;52.378;10.400;2023-03-31T02:05:14;3.90;;;1.70;;
58896;SDS011;44677;52.378;10.400;2023-03-31T02:07:45;4.20;;;1.90;;
58896;SDS011;44677;52.378;10.400;2023-03-31T02:10:35;3.50;;;1.70;;
58896;SDS011;44677;52.378;10.400;2023-03-31T02:13:01;4.80;;;1.70;;
58896;SDS011;44677;52.378;10.400;2023-03-31T02:15:29;3.00;;;1.60;;
58896;SDS011;44677;52.378;10.400;2023-03-31T02:17:59;2.80;;;2.00;;
58896;SDS011;44677;52.378;10.400;2023-03-31T02:20:30;3.30;;;1.60;;
58896;SDS011;44677;52.378;10.400;2023-03-31T02:22:56;5.50;;;1.80;;
58896;SDS011;44677;52.378;10.400;2023-03-31T02:25:24;5.00;;;2.00;;
58896;SDS011;44677;52.378;10.400;2023-03-31T02:28:04;2.40;;;1.70;;
58896;SDS011;44677;52.378;10.400;2023-03-31T02:30:35;4.50;;;1.80;;
58896;SDS011;44677;52.378;10.400;2023-03-31T02:33:16;6.00;;;1.90;;
58896;SDS011;44677;52.378;10.400;2023-03-31T02:35:42;3.90;;;1.80;;
58896;SDS011;44677;52.378;10.400;2023-03-31T02:38:07;4.20;;;1.70;;
58896;SDS011;44677;52.378;10.400;2023-03-31T02:40:34;4.90;;;1.80;;
58896;SDS011;44677;52.378;10.400;2023-03-31T02:43:00;5.50;;;1.90;;
58896;SDS011;44677;52.378;10.400;2023-03-31T02:48:10;3.40;;;1.60;;
58896;SDS011;44677;52.378;10.400;2023-03-31T02:51:00;5.10;;;1.60;;
58896;SDS011;44677;52.378;10.400;2023-03-31T02:57:05;6.00;;;1.80;;
58896;SDS011;44677;52.378;10.400;2023-03-31T03:02:09;4.80;;;1.60;;
58896;SDS011;44677;52.378;10.400;2023-03-31T03:04:40;2.20;;;1.20;;
58896;SDS011;44677;52.378;10.400;2023-03-31T03:07:23;3.60;;;2.00;;
58896;SDS011;44677;52.378;10.400;2023-03-31T03:10:05;5.10;;;2.10;;
58896;SDS011;44677;52.378;10.400;2023-03-31T03:12:37;5.00;;;2.00;;
58896;SDS011;44677;52.378;10.400;2023-03-31T03:15:15;4.20;;;1.50;;
58896;SDS011;44677;52.378;10.400;2023-03-31T03:17:45;2.30;;;1.40;;
58896;SDS011;44677;52.378;10.400;2023-03-31T03:20:11;2.50;;;1.50;;
58896;SDS011;44677;52.378;10.400;2023-03-31T03:22:38;3.90;;;1.40;;
58896;SDS011;44677;52.378;10.400;2023-03-31T03:25:08;2.00;;;1.40;;
58896;SDS011;44677;52.378;10.400;2023-03-31T03:27:36;2.00;;;1.20;;
58896;SDS011;44677;52.378;10.400;2023-03-31T03:30:02;3.30;;;1.60;;
58896;SDS011;44677;52.378;10.400;2023-03-31T03:32:29;3.00;;;1.30;;
58896;SDS011;44677;52.378;10.400;2023-03-31T03:34:55;5.20;;;1.60;;
58896;SDS011;44677;52.378;10.400;2023-03-31T03:37:20;4.50;;;1.60;;
58896;SDS011;44677;52.378;10.400;2023-03-31T03:39:46;3.50;;;1.50;;
58896;SDS011;44677;52.378;10.400;2023-03-31T03:42:11;4.20;;;1.50;;
58896;SDS011;44677;52.378;10.400;2023-03-31T03:44:36;3.00;;;1.40;;
58896;SDS011;44677;52.378;10.400;2023-03-31T03:47:02;3.40;;;1.40;;
58896;SDS011;44677;52.378;10.400;2023-03-31T03:49:27;2.60;;;1.30;;
58896;SDS011;44677;52.378;10.400;2023-03-31T03:51:53;4.60;;;1.70;;
58896;SDS011;44677;52.378;10.400;2023-03-31T03:54:18;3.90;;;1.20;;
58896;SDS011;44677;52.378;10.400;2023-03-31T03:56:43;3.00;;;1.40;;
58896;SDS011;44677;52.378;10.400;2023-03-31T03:59:09;3.90;;;1.50;;
58896;SDS011;44677;52.378;10.400;2023-03-31T04:01:35;3.30;;;1.30;;
58896;SDS011;44677;52.378;10.400;2023-03-31T04:04:01;5.80;;;2.00;;
58896;SDS011;44677;52.378;10.400;2023-03-31T04:06:27;4.50;;;1.50;;
58896;SDS011;44677;52.378;10.400;2023-03-31T04:08:53;2.30;;;1.30;;
58896;SDS011;44677;52.378;10.400;2023-03-31T04:11:18;2.20;;;1.10;;
58896;SDS011;44677;52.378;10.400;2023-03-31T04:13:44;4.30;;;1.80;;
58896;SDS011;44677;52.378;10.400;2023-03-31T04:16:10;3.60;;;1.60;;
58896;SDS011;44677;52.378;10.400;2023-03-31T04:18:35;5.70;;;1.50;;
58896;SDS011;44677;52.378;10.400;2023-03-31T04:21:07;3.60;;;1.50;;
58896;SDS011;44677;52.378;10.400;2023-03-31T04:23:37;5.10;;;1.60;;
58896;SDS011;44677;52.378;10.400;2023-03-31T04:26:07;3.60;;;1.60;;
58896;SDS011;44677;52.378;10.400;2023-03-31T04:28:34;3.30;;;1.40;;
58896;SDS011;44677;52.378;10.400;2023-03-31T04:31:03;2.60;;;1.40;;
58896;SDS011;44677;52.378;10.400;2023-03-31T04:33:30;2.70;;;1.40;;
58896;SDS011;44677;52.378;10.400;2023-03-31T04:35:58;3.60;;;1.30;;
58896;SDS011;44677;52.378;10.400;2023-03-31T04:38:30;2.10;;;1.20;;
58896;SDS011;44677;52.378;10.400;2023-03-31T04:40:58;3.80;;;1.30;;
58896;SDS011;44677;52.378;10.400;2023-03-31T04:43:23;5.70;;;1.50;;
58896;SDS011;44677;52.378;10.400;2023-03-31T04:45:49;4.20;;;1.50;;
58896;SDS011;44677;52.378;10.400;2023-03-31T04:48:15;4.30;;;1.50;;
58896;SDS011;44677;52.378;10.400;2023-03-31T04:50:40;6.50;;;2.00;;
58896;SDS011;44677;52.378;10.400;2023-03-31T04:53:06;6.60;;;1.80;;
58896;SDS011;44677;52.378;10.400;2023-03-31T04:55:31;4.30;;;1.40;;
58896;SDS011;44677;52.378;10.400;2023-03-31T04:57:57;2.50;;;1.30;;
58896;SDS011;44677;52.378;10.400;2023-03-31T05:00:23;3.90;;;1.80;;
58896;SDS011;44677;52.378;10.400;2023-03-31T05:02:48;4.70;;;1.60;;
58896;SDS011;44677;52.378;10.400;2023-03-31T05:05:14;6.10;;;1.80;;
58896;SDS011;44677;52.378;10.400;2023-03-31T05:07:39;5.20;;;1.60;;
58896;SDS011;44677;52.378;10.400;2023-03-31T05:10:05;6.30;;;2.10;;
58896;SDS011;44677;52.378;10.400;2023-03-31T05:12:34;3.30;;;1.90;;
58896;SDS011;44677;52.378;10.400;2023-03-31T05:15:01;4.60;;;1.80;;
58896;SDS011;44677;52.378;10.400;2023-03-31T05:17:29;4.20;;;1.60;;
58896;SDS011;44677;52.378;10.400;2023-03-31T05:19:56;2.90;;;1.50;;
58896;SDS011;44677;52.378;10.400;2023-03-31T05:22:21;2.70;;;1.60;;
58896;SDS011;44677;52.378;10.400;2023-03-31T05:24:46;4.50;;;1.80;;
58896;SDS011;44677;52.378;10.400;2023-03-31T05:27:12;7.90;;;1.90;;
58896;SDS011;44677;52.378;10.400;2023-03-31T05:29:37;5.20;;;1.70;;
58896;SDS011;44677;52.378;10.400;2023-03-31T05:32:03;6.00;;;1.90;;
58896;SDS011;44677;52.378;10.400;2023-03-31T05:34:29;5.60;;;1.60;;
58896;SDS011;44677;52.378;10.400;2023-03-31T05:36:55;4.80;;;1.70;;
58896;SDS011;44677;52.378;10.400;2023-03-31T05:39:20;7.10;;;2.00;;
58896;SDS011;44677;52.378;10.400;2023-03-31T05:41:45;7.00;;;1.80;;
58896;SDS011;44677;52.378;10.400;2023-03-31T05:44:11;3.40;;;1.70;;
58896;SDS011;44677;52.378;10.400;2023-03-31T05:46:36;3.90;;;1.90;;
58896;SDS011;44677;52.378;10.400;2023-03-31T05:49:02;4.00;;;1.60;;
58896;SDS011;44677;52.378;10.400;2023-03-31T05:51:27;6.20;;;1.90;;
58896;SDS011;44677;52.378;10.400;2023-03-31T05:53:53;4.40;;;1.60;;
58896;SDS011;44677;52.378;10.400;2023-03-31T05:56:18;2.00;;;1.40;;
58896;SDS011;44677;52.378;10.400;2023-03-31T05:58:43;3.90;;;1.60;;
58896;SDS011;44677;52.378;10.400;2023-03-31T06:01:10;3.60;;;1.90;;
58896;SDS011;44677;52.378;10.400;2023-03-31T06:03:38;4.40;;;1.90;;
58896;SDS011;44677;52.378;10.400;2023-03-31T06:06:08;5.60;;;1.80;;
58896;SDS011;44677;52.378;10.400;2023-03-31T06:08:34;5.00;;;1.50;;
58896;SDS011;44677;52.378;10.400;2023-03-31T06:11:10;7.50;;;1.50;;
58896;SDS011;44677;52.378;10.400;2023-03-31T06:13:38;4.30;;;1.30;;
58896;SDS011;44677;52.378;10.400;2023-03-31T06:16:04;2.70;;;1.40;;
58896;SDS011;44677;52.378;10.400;2023-03-31T06:18:30;4.10;;;1.40;;
58896;SDS011;44677;52.378;10.400;2023-03-31T06:20:57;3.70;;;1.60;;
58896;SDS011;44677;52.378;10.400;2023-03-31T06:23:23;5.10;;;1.40;;
58896;SDS011;44677;52.378;10.400;2023-03-31T06:25:49;2.60;;;1.20;;
58896;SDS011;44677;52.378;10.400;2023-03-31T06:28:14;7.10;;;1.90;;
58896;SDS011;44677;52.378;10.400;2023-03-31T06:30:40;3.60;;;1.30;;
58896;SDS011;44677;52.378;10.400;2023-03-31T06:33:05;2.90;;;1.30;;
58896;SDS011;44677;52.378;10.400;2023-03-31T06:35:31;4.50;;;1.40;;
58896;SDS011;44677;52.378;10.400;2023-03-31T06:37:56;3.80;;;1.00;;
58896;SDS011;44677;52.378;10.400;2023-03-31T06:40:22;3.80;;;1.40;;
58896;SDS011;44677;52.378;10.400;2023-03-31T06:42:47;3.10;;;1.70;;
58896;SDS011;44677;52.378;10.400;2023-03-31T06:45:13;2.90;;;1.20;;
58896;SDS011;44677;52.378;10.400;2023-03-31T06:47:38;2.50;;;1.30;;
58896;SDS011;44677;52.378;10.400;2023-03-31T06:52:31;4.50;;;1.40;;
58896;SDS011;44677;52.378;10.400;2023-03-31T06:54:57;3.10;;;1.20;;
58896;SDS011;44677;52.378;10.400;2023-03-31T06:57:22;6.80;;;1.50;;
58896;SDS011;44677;52.378;10.400;2023-03-31T06:59:47;3.40;;;1.40;;
58896;SDS011;44677;52.378;10.400;2023-03-31T07:02:13;4.90;;;1.40;;
58896;SDS011;44677;52.378;10.400;2023-03-31T07:04:38;1.60;;;1.10;;
58896;SDS011;44677;52.378;10.400;2023-03-31T07:07:04;2.90;;;1.00;;
58896;SDS011;44677;52.378;10.400;2023-03-31T07:09:29;2.40;;;1.20;;
58896;SDS011;44677;52.378;10.400;2023-03-31T07:11:55;6.00;;;1.60;;
58896;SDS011;44677;52.378;10.400;2023-03-31T07:14:20;3.40;;;1.20;;
58896;SDS011;44677;52.378;10.400;2023-03-31T07:16:46;5.40;;;1.40;;
58896;SDS011;44677;52.378;10.400;2023-03-31T07:19:12;3.70;;;1.30;;
58896;SDS011;44677;52.378;10.400;2023-03-31T07:21:39;2.70;;;1.10;;
58896;SDS011;44677;52.378;10.400;2023-03-31T07:24:05;4.50;;;1.50;;
58896;SDS011;44677;52.378;10.400;2023-03-31T07:26:30;2.80;;;1.20;;
58896;SDS011;44677;52.378;10.400;2023-03-31T07:28:56;3.30;;;1.20;;
58896;SDS011;44677;52.378;10.400;2023-03-31T07:31:22;2.50;;;1.30;;
58896;SDS011;44677;52.378;10.400;2023-03-31T07:33:48;3.60;;;1.50;;
58896;SDS011;44677;52.378;10.400;2023-03-31T07:36:13;3.00;;;1.30;;
58896;SDS011;44677;52.378;10.400;2023-03-31T07:38:39;3.70;;;1.30;;
58896;SDS011;44677;52.378;10.400;2023-03-31T07:41:08;3.10;;;1.30;;
58896;SDS011;44677;52.378;10.400;2023-03-31T07:43:35;3.90;;;1.60;;
58896;SDS011;44677;52.378;10.400;2023-03-31T07:46:01;5.40;;;1.90;;
58896;SDS011;44677;52.378;10.400;2023-03-31T07:48:26;4.20;;;1.80;;
58896;SDS011;44677;52.378;10.400;2023-03-31T07:50:53;6.50;;;1.90;;
58896;SDS011;44677;52.378;10.400;2023-03-31T07:53:25;2.10;;;1.40;;
58896;SDS011;44677;52.378;10.400;2023-03-31T07:55:50;4.60;;;1.20;;
58896;SDS011;44677;52.378;10.400;2023-03-31T07:58:16;4.00;;;1.40;;
58896;SDS011;44677;52.378;10.400;2023-03-31T08:00:41;2.60;;;1.70;;
58896;SDS011;44677;52.378;10.400;2023-03-31T08:03:07;4.20;;;1.60;;
58896;SDS011;44677;52.378;10.400;2023-03-31T08:05:32;4.80;;;1.70;;
58896;SDS011;44677;52.378;10.400;2023-03-31T08:07:58;5.80;;;1.60;;
58896;SDS011;44677;52.378;10.400;2023-03-31T08:10:24;5.70;;;1.70;;
58896;SDS011;44677;52.378;10.400;2023-03-31T08:12:51;4.10;;;1.50;;
58896;SDS011;44677;52.378;10.400;2023-03-31T08:15:16;5.60;;;1.40;;
58896;SDS011;44677;52.378;10.400;2023-03-31T08:17:42;6.50;;;2.10;;
58896;SDS011;44677;52.378;10.400;2023-03-31T08:20:08;3.00;;;1.50;;
58896;SDS011;44677;52.378;10.400;2023-03-31T08:22:38;5.90;;;1.60;;
58896;SDS011;44677;52.378;10.400;2023-03-31T08:25:04;7.40;;;1.40;;
58896;SDS011;44677;52.378;10.400;2023-03-31T08:27:34;2.20;;;1.40;;
58896;SDS011;44677;52.378;10.400;2023-03-31T08:30:00;4.10;;;1.70;;
58896;SDS011;44677;52.378;10.400;2023-03-31T08:32:29;4.70;;;2.00;;
58896;SDS011;44677;52.378;10.400;2023-03-31T08:34:56;7.00;;;1.90;;
58896;SDS011;44677;52.378;10.400;2023-03-31T08:37:21;5.30;;;1.60;;
58896;SDS011;44677;52.378;10.400;2023-03-31T08:39:47;4.80;;;1.80;;
58896;SDS011;44677;52.378;10.400;2023-03-31T08:42:14;4.80;;;1.90;;
58896;SDS011;44677;52.378;10.400;2023-03-31T08:44:43;3.90;;;2.00;;
58896;SDS011;44677;52.378;10.400;2023-03-31T08:47:14;4.10;;;1.80;;
58896;SDS011;44677;52.378;10.400;2023-03-31T08:49:48;4.50;;;1.60;;
58896;SDS011;44677;52.378;10.400;2023-03-31T08:52:28;6.70;;;1.90;;
58896;SDS011;44677;52.378;10.400;2023-03-31T08:54:58;2.90;;;1.30;;
58896;SDS011;44677;52.378;10.400;2023-03-31T08:57:37;3.30;;;1.40;;
58896;SDS011;44677;52.378;10.400;2023-03-31T09:00:16;5.40;;;1.60;;
58896;SDS011;44677;52.378;10.400;2023-03-31T09:05:29;4.40;;;1.70;;
58896;SDS011;44677;52.378;10.400;2023-03-31T09:08:04;6.40;;;1.80;;
58896;SDS011;44677;52.378;10.400;2023-03-31T09:10:54;4.40;;;1.80;;
58896;SDS011;44677;52.378;10.400;2023-03-31T09:13:36;6.30;;;1.60;;
58896;SDS011;44677;52.378;10.400;2023-03-31T09:16:13;4.50;;;1.50;;
58896;SDS011;44677;52.378;10.400;2023-03-31T09:18:40;3.10;;;1.70;;
58896;SDS011;44677;52.378;10.400;2023-03-31T09:21:16;2.70;;;1.80;;
58896;SDS011;44677;52.378;10.400;2023-03-31T09:23:50;6.10;;;1.90;;
58896;SDS011;44677;52.378;10.400;2023-03-31T09:28:58;4.50;;;1.70;;
58896;SDS011;44677;52.378;10.400;2023-03-31T09:31:25;2.20;;;1.50;;
58896;SDS011;44677;52.378;10.400;2023-03-31T09:33:51;4.00;;;1.40;;
58896;SDS011;44677;52.378;10.400;2023-03-31T09:36:19;3.10;;;1.40;;
58896;SDS011;44677;52.378;10.400;2023-03-31T09:38:46;4.00;;;1.50;;
58896;SDS011;44677;52.378;10.400;2023-03-31T09:41:13;5.60;;;1.60;;
58896;SDS011;44677;52.378;10.400;2023-03-31T09:43:40;5.60;;;2.00;;
58896;SDS011;44677;52.378;10.400;2023-03-31T09:46:18;3.00;;;1.80;;
58896;SDS011;44677;52.378;10.400;2023-03-31T09:48:52;4.20;;;1.80;;
58896;SDS011;44677;52.378;10.400;2023-03-31T09:51:22;4.50;;;1.50;;
58896;SDS011;44677;52.378;10.400;2023-03-31T09:59:11;5.30;;;1.70;;
58896;SDS011;44677;52.378;10.400;2023-03-31T10:01:38;5.00;;;1.80;;
58896;SDS011;44677;52.378;10.400;2023-03-31T10:04:05;5.10;;;1.80;;
58896;SDS011;44677;52.378;10.400;2023-03-31T10:06:32;1.70;;;1.50;;
58896;SDS011;44677;52.378;10.400;2023-03-31T10:09:05;3.40;;;1.60;;
58896;SDS011;44677;52.378;10.400;2023-03-31T10:11:31;3.70;;;1.70;;
58896;SDS011;44677;52.378;10.400;2023-03-31T10:14:10;2.40;;;1.50;;
58896;SDS011;44677;52.378;10.400;2023-03-31T10:19:30;4.10;;;1.60;;
58896;SDS011;44677;52.378;10.400;2023-03-31T10:24:43;5.40;;;1.80;;
58896;SDS011;44677;52.378;10.400;2023-03-31T10:29:52;2.90;;;1.70;;
58896;SDS011;44677;52.378;10.400;2023-03-31T10:34:56;3.60;;;2.10;;
58896;SDS011;44677;52.378;10.400;2023-03-31T10:37:27;1.70;;;1.10;;
58896;SDS011;44677;52.378;10.400;2023-03-31T10:39:57;2.60;;;1.70;;
58896;SDS011;44677;52.378;10.400;2023-03-31T10:42:44;5.30;;;2.00;;
58896;SDS011;44677;52.378;10.400;2023-03-31T10:45:58;4.10;;;1.50;;
58896;SDS011;44677;52.378;10.400;2023-03-31T10:48:01;3.10;;;1.50;;
58896;SDS011;44677;52.378;10.400;2023-03-31T10:50:28;3.90;;;1.60;;
58896;SDS011;44677;52.378;10.400;2023-03-31T10:53:00;2.80;;;1.50;;
58896;SDS011;44677;52.378;10.400;2023-03-31T10:55:30;3.80;;;1.60;;
58896;SDS011;44677;52.378;10.400;2023-03-31T10:58:24;3.10;;;1.30;;
58896;SDS011;44677;52.378;10.400;2023-03-31T11:01:11;5.00;;;1.50;;
58896;SDS011;44677;52.378;10.400;2023-03-31T11:09:43;4.60;;;2.00;;
58896;SDS011;44677;52.378;10.400;2023-03-31T11:12:42;5.00;;;1.20;;
58896;SDS011;44677;52.378;10.400;2023-03-31T11:18:04;2.10;;;1.30;;
58896;SDS011;44677;52.378;10.400;2023-03-31T11:26:18;1.60;;;1.40;;
58896;SDS011;44677;52.378;10.400;2023-03-31T11:32:11;2.70;;;1.50;;
58896;SDS011;44677;52.378;10.400;2023-03-31T11:35:05;1.70;;;1.20;;
58896;SDS011;44677;52.378;10.400;2023-03-31T11:38:00;1.80;;;1.40;;
58896;SDS011;44677;52.378;10.400;2023-03-31T11:43:14;2.10;;;1.30;;
58896;SDS011;44677;52.378;10.400;2023-03-31T11:51:16;3.60;;;1.40;;
58896;SDS011;44677;52.378;10.400;2023-03-31T11:53:48;2.40;;;1.40;;
58896;SDS011;44677;52.378;10.400;2023-03-31T11:56:16;2.10;;;1.20;;
58896;SDS011;44677;52.378;10.400;2023-03-31T11:58:47;1.60;;;1.40;;
58896;SDS011;44677;52.378;10.400;2023-03-31T12:04:34;1.10;;;1.00;;
58896;SDS011;44677;52.378;10.400;2023-03-31T12:07:22;1.00;;;1.00;;
58896;SDS011;44677;52.378;10.400;2023-03-31T12:12:18;3.10;;;1.20;;
58896;SDS011;44677;52.378;10.400;2023-03-31T12:14:54;2.30;;;0.80;;
58896;SDS011;44677;52.378;10.400;2023-03-31T12:17:25;1.10;;;0.90;;
58896;SDS011;44677;52.378;10.400;2023-03-31T12:19:55;1.80;;;1.00;;
58896;SDS011;44677;52.378;10.400;2023-03-31T12:22:24;1.40;;;0.70;;
58896;SDS011;44677;52.378;10.400;2023-03-31T12:24:52;2.00;;;1.20;;
58896;SDS011;44677;52.378;10.400;2023-03-31T12:27:25;1.10;;;1.00;;
58896;SDS011;44677;52.378;10.400;2023-03-31T12:32:53;0.90;;;0.90;;
58896;SDS011;44677;52.378;10.400;2023-03-31T12:35:22;3.10;;;1.10;;
58896;SDS011;44677;52.378;10.400;2023-03-31T12:52:04;1.50;;;1.10;;
58896;SDS011;44677;52.378;10.400;2023-03-31T12:58:14;2.40;;;1.60;;
58896;SDS011;44677;52.378;10.400;2023-03-31T13:08:59;1.60;;;1.50;;
58896;SDS011;44677;52.378;10.400;2023-03-31T13:11:43;2.20;;;1.50;;
58896;SDS011;44677;52.378;10.400;2023-03-31T13:14:13;1.80;;;1.40;;
58896;SDS011;44677;52.378;10.400;2023-03-31T13:16:42;1.30;;;1.20;;
58896;SDS011;44677;52.378;10.400;2023-03-31T13:19:09;1.40;;;1.30;;
58896;SDS011;44677;52.378;10.400;2023-03-31T13:21:53;2.90;;;1.40;;
58896;SDS011;44677;52.378;10.400;2023-03-31T13:24:20;2.20;;;1.60;;
58896;SDS011;44677;52.378;10.400;2023-03-31T13:26:47;2.40;;;1.50;;
58896;SDS011;44677;52.378;10.400;2023-03-31T13:34:40;1.70;;;1.20;;
58896;SDS011;44677;52.378;10.400;2023-03-31T13:50:44;2.40;;;1.20;;
58896;SDS011;44677;52.378;10.400;2023-03-31T14:03:46;2.90;;;1.10;;
58896;SDS011;44677;52.378;10.400;2023-03-31T14:09:32;2.70;;;1.30;;
58896;SDS011;44677;52.378;10.400;2023-03-31T14:11:59;2.20;;;1.40;;
58896;SDS011;44677;52.378;10.400;2023-03-31T14:14:25;4.40;;;1.40;;
58896;SDS011;44677;52.378;10.400;2023-03-31T14:16:55;1.30;;;1.10;;
58896;SDS011;44677;52.378;10.400;2023-03-31T14:19:30;2.50;;;1.20;;
58896;SDS011;44677;52.378;10.400;2023-03-31T14:28:13;3.60;;;1.30;;
58896;SDS011;44677;52.378;10.400;2023-03-31T14:31:13;1.30;;;1.10;;
58896;SDS011;44677;52.378;10.400;2023-03-31T14:39:13;3.40;;;1.30;;
58896;SDS011;44677;52.378;10.400;2023-03-31T14:41:40;2.80;;;1.30;;
58896;SDS011;44677;52.378;10.400;2023-03-31T14:44:10;4.60;;;1.50;;
58896;SDS011;44677;52.378;10.400;2023-03-31T14:46:39;4.20;;;1.30;;
58896;SDS011;44677;52.378;10.400;2023-03-31T14:49:17;1.80;;;1.10;;
58896;SDS011;44677;52.378;10.400;2023-03-31T14:51:51;1.70;;;1.10;;
58896;SDS011;44677;52.378;10.400;2023-03-31T14:54:18;5.10;;;1.40;;
58896;SDS011;44677;52.378;10.400;2023-03-31T14:56:45;2.20;;;1.20;;
58896;SDS011;44677;52.378;10.400;2023-03-31T14:59:17;5.80;;;1.40;;
58896;SDS011;44677;52.378;10.400;2023-03-31T15:01:49;4.80;;;1.40;;
58896;SDS011;44677;52.378;10.400;2023-03-31T15:04:16;5.50;;;1.50;;
58896;SDS011;44677;52.378;10.400;2023-03-31T15:06:45;3.20;;;1.10;;
58896;SDS011;44677;52.378;10.400;2023-03-31T15:11:46;4.70;;;1.60;;
58896;SDS011;44677;52.378;10.400;2023-03-31T15:14:12;3.50;;;1.40;;
58896;SDS011;44677;52.378;10.400;2023-03-31T15:16:44;4.00;;;1.30;;
58896;SDS011;44677;52.378;10.400;2023-03-31T15:19:21;3.40;;;1.50;;
58896;SDS011;44677;52.378;10.400;2023-03-31T15:21:53;5.90;;;1.60;;
58896;SDS011;44677;52.378;10.400;2023-03-31T15:24:26;4.20;;;1.50;;
58896;SDS011;44677;52.378;10.400;2023-03-31T15:27:00;4.10;;;1.90;;
58896;SDS011;44677;52.378;10.400;2023-03-31T15:29:39;2.90;;;1.40;;
58896;SDS011;44677;52.378;10.400;2023-03-31T15:34:53;3.80;;;1.80;;
58896;SDS011;44677;52.378;10.400;2023-03-31T15:37:20;5.20;;;1.90;;
58896;SDS011;44677;52.378;10.400;2023-03-31T15:39:47;4.40;;;1.90;;
58896;SDS011;44677;52.378;10.400;2023-03-31T15:42:13;5.50;;;1.80;;
58896;SDS011;44677;52.378;10.400;2023-03-31T15:44:46;3.30;;;1.70;;
58896;SDS011;44677;52.378;10.400;2023-03-31T15:49:47;7.20;;;2.70;;
58896;SDS011;44677;52.378;10.400;2023-03-31T15:52:24;3.80;;;1.80;;
58896;SDS011;44677;52.378;10.400;2023-03-31T15:54:55;4.70;;;1.50;;
58896;SDS011;44677;52.378;10.400;2023-03-31T15:57:21;4.00;;;1.40;;
58896;SDS011;44677;52.378;10.400;2023-03-31T15:59:57;2.00;;;0.90;;
58896;SDS011;44677;52.378;10.400;2023-03-31T16:05:27;2.70;;;1.00;;
58896;SDS011;44677;52.378;10.400;2023-03-31T16:07:57;2.10;;;1.10;;
58896;SDS011;44677;52.378;10.400;2023-03-31T16:10:22;2.50;;;1.10;;
58896;SDS011;44677;52.378;10.400;2023-03-31T16:12:56;2.90;;;1.10;;
58896;SDS011;44677;52.378;10.400;2023-03-31T16:15:30;2.70;;;1.20;;
58896;SDS011;44677;52.378;10.400;2023-03-31T16:18:04;3.80;;;1.20;;
58896;SDS011;44677;52.378;10.400;2023-03-31T16:20:37;3.50;;;1.30;;
58896;SDS011;44677;52.378;10.400;2023-03-31T16:23:12;3.70;;;1.20;;
58896;SDS011;44677;52.378;10.400;2023-03-31T16:25:39;4.20;;;1.50;;
58896;SDS011;44677;52.378;10.400;2023-03-31T16:28:05;4.30;;;1.50;;
58896;SDS011;44677;52.378;10.400;2023-03-31T16:30:39;3.00;;;1.50;;
58896;SDS011;44677;52.378;10.400;2023-03-31T16:33:10;2.00;;;1.60;;
58896;SDS011;44677;52.378;10.400;2023-03-31T16:35:41;5.90;;;1.90;;
58896;SDS011;44677;52.378;10.400;2023-03-31T16:38:09;5.10;;;1.90;;
58896;SDS011;44677;52.378;10.400;2023-03-31T16:40:39;5.00;;;2.20;;
58896;SDS011;44677;52.378;10.400;2023-03-31T16:43:07;3.60;;;1.70;;
58896;SDS011;44677;52.378;10.400;2023-03-31T16:45:34;4.90;;;1.90;;
58896;SDS011;44677;52.378;10.400;2023-03-31T16:47:59;5.40;;;1.70;;
58896;SDS011;44677;52.378;10.400;2023-03-31T16:50:25;2.80;;;1.70;;
58896;SDS011;44677;52.378;10.400;2023-03-31T16:52:50;6.80;;;2.10;;
58896;SDS011;44677;52.378;10.400;2023-03-31T16:55:16;2.10;;;1.70;;
58896;SDS011;44677;52.378;10.400;2023-03-31T16:57:41;4.90;;;1.70;;
58896;SDS011;44677;52.378;10.400;2023-03-31T17:00:07;4.90;;;1.90;;
58896;SDS011;44677;52.378;10.400;2023-03-31T17:02:33;5.00;;;1.60;;
58896;SDS011;44677;52.378;10.400;2023-03-31T17:04:58;9.70;;;2.00;;
58896;SDS011;44677;52.378;10.400;2023-03-31T17:07:23;7.70;;;2.00;;
58896;SDS011;44677;52.378;10.400;2023-03-31T17:09:49;4.40;;;1.90;;
58896;SDS011;44677;52.378;10.400;2023-03-31T17:12:14;7.00;;;1.80;;
58896;SDS011;44677;52.378;10.400;2023-03-31T17:14:40;3.70;;;1.80;;
58896;SDS011;44677;52.378;10.400;2023-03-31T17:17:05;6.10;;;2.10;;
58896;SDS011;44677;52.378;10.400;2023-03-31T17:19:30;5.00;;;1.80;;
58896;SDS011;44677;52.378;10.400;2023-03-31T17:21:56;3.00;;;1.80;;
58896;SDS011;44677;52.378;10.400;2023-03-31T17:24:26;2.40;;;1.50;;
58896;SDS011;44677;52.378;10.400;2023-03-31T17:26:52;2.70;;;2.20;;
58896;SDS011;44677;52.378;10.400;2023-03-31T17:29:17;5.10;;;2.10;;
58896;SDS011;44677;52.378;10.400;2023-03-31T17:31:43;4.40;;;2.40;;
58896;SDS011;44677;52.378;10.400;2023-03-31T17:34:08;5.80;;;2.00;;
58896;SDS011;44677;52.378;10.400;2023-03-31T17:36:35;4.50;;;2.10;;
58896;SDS011;44677;52.378;10.400;2023-03-31T17:39:01;6.00;;;2.30;;
58896;SDS011;44677;52.378;10.400;2023-03-31T17:41:29;3.10;;;2.20;;
58896;SDS011;44677;52.378;10.400;2023-03-31T17:43:55;2.60;;;2.00;;
58896;SDS011;44677;52.378;10.400;2023-03-31T17:46:21;4.60;;;2.20;;
58896;SDS011;44677;52.378;10.400;2023-03-31T17:48:47;5.80;;;2.70;;
58896;SDS011;44677;52.378;10.400;2023-03-31T17:51:14;5.30;;;2.00;;
58896;SDS011;44677;52.378;10.400;2023-03-31T17:53:41;3.40;;;2.00;;
58896;SDS011;44677;52.378;10.400;2023-03-31T17:56:09;4.10;;;1.80;;
58896;SDS011;44677;52.378;10.400;2023-03-31T17:58:35;6.10;;;2.40;;